MMZC/ZCL METAR and TAF weather

Enter ICAO airport designator
Station Type Date Time Source
MMZC METAR 2021/05/13 23:47 UTC NOAA

MMZC 132347Z 12015KT 7SM RA OVC040CB 22/11 A3025 RMK 8/3//


Station Type Date Time Source
MMZC Decoded METAR 2021/05/13 23:47 UTC NOAA

Zacatecas Airport, Mexico (MMZC) 22-54N 102-41W
May 13, 2021 - 07:47 PM EDT / 2021.05.13 2347 UTC
Wind: from the ESE (120 degrees) at 17 MPH (15 KT):0
Visibility: 7 mile(s):0
Sky conditions: overcast
Weather: rain; Cumulonimbus clouds observed
Temperature: 71 F (22 C)
Dew Point: 51 F (11 C)
Relative Humidity: 49%
Pressure (altimeter): 30.25 in. Hg (1024 hPa)
ob: MMZC 132347Z 12015KT 7SM RA OVC040CB 22/11 A3025 RMK 8/3//
cycle: 0

Station Type Date Time Source
MMZC TAF 2021/05/13 18:03 UTC NOAA

TAF MMZC 131700Z 1318/1424 13015KT P6SM SCT020 SCT230 TX26/1320Z TN11/1412Z
FM132300 14015KT P6SM BKN030CB OVC120
TEMPO 1400/1404 4SM RA
FM140500 00000KT 4SM HZ OVC015
FM141200 00000KT 3SM HZ OVC010
FM141600 22010KT 5SM HZ SCT015 SCT080

Example: see airport list